Time;durP1;ratioP1;P1;durP2;ratioP2;P2;SDS_P1;SDS_P2;PMS_P1;PMS_P2;Temp;Humidity;BMP_temperature;BMP_pressure;BME280_temperature;BME280_humidity;BME280_pressure;Samples;Min_cycle;Max_cycle;Signal;HPM_P1;HPM_P2
2022/07/04 00:00:08;;;;;;;2.03;1.50;;;;;;;;;;5070573;28;20227;-53
2022/07/04 00:02:35;;;;;;;2.23;1.63;;;;;;;;;;5070980;28;20196;-52
2022/07/04 00:05:01;;;;;;;2.07;1.50;;;;;;;;;;5070957;28;20569;-53
2022/07/04 00:07:27;;;;;;;2.17;1.60;;;;;;;;;;5071185;28;20204;-53
2022/07/04 00:09:53;;;;;;;2.17;1.40;;;;;;;;;;5071180;28;20195;-54
2022/07/04 00:12:19;;;;;;;1.40;1.30;;;;;;;;;;5070961;28;20666;-53
2022/07/04 00:14:46;;;;;;;1.40;1.30;;;;;;;;;;5070952;28;20227;-54
2022/07/04 00:17:12;;;;;;;1.33;1.23;;;;;;;;;;5070856;28;20207;-54
2022/07/04 00:19:38;;;;;;;1.70;1.60;;;;;;;;;;5070533;28;20239;-54
2022/07/04 00:22:04;;;;;;;1.40;1.27;;;;;;;;;;5070800;28;20544;-54
2022/07/04 00:24:30;;;;;;;1.50;1.40;;;;;;;;;;5071133;28;20198;-54
2022/07/04 00:26:56;;;;;;;1.80;1.40;;;;;;;;;;5072020;28;20191;-54
2022/07/04 00:29:22;;;;;;;1.57;1.43;;;;;;;;;;5074440;28;20192;-53
2022/07/04 00:31:50;;;;;;;1.77;1.40;;;;;;;;;;5074754;28;20287;-54
2022/07/04 00:34:16;;;;;;;1.77;1.50;;;;;;;;;;5074486;28;20207;-54
2022/07/04 00:36:42;;;;;;;1.50;1.40;;;;;;;;;;5074533;28;20196;-54
2022/07/04 00:39:08;;;;;;;5.33;1.60;;;;;;;;;;5074237;28;20195;-54
2022/07/04 00:41:34;;;;;;;4.90;1.60;;;;;;;;;;5074566;28;20227;-54
2022/07/04 00:44:01;;;;;;;1.50;1.40;;;;;;;;;;5074246;28;20253;-54
2022/07/04 00:46:27;;;;;;;2.03;1.53;;;;;;;;;;5074300;28;20195;-53
2022/07/04 00:48:54;;;;;;;2.07;1.60;;;;;;;;;;5074252;28;20253;-54
2022/07/04 00:51:20;;;;;;;1.60;1.50;;;;;;;;;;5074103;28;20192;-54
2022/07/04 00:53:46;;;;;;;1.60;1.50;;;;;;;;;;5074286;28;20206;-54
2022/07/04 00:56:12;;;;;;;2.03;1.50;;;;;;;;;;5073859;28;20703;-54
2022/07/04 00:58:38;;;;;;;1.70;1.57;;;;;;;;;;5074094;28;20207;-54
2022/07/04 01:01:04;;;;;;;1.53;1.43;;;;;;;;;;5073913;28;20231;-54
2022/07/04 01:03:30;;;;;;;2.33;1.80;;;;;;;;;;5073803;28;20560;-54
2022/07/04 01:05:59;;;;;;;2.87;1.50;;;;;;;;;;5073709;28;20196;-55
2022/07/04 01:08:25;;;;;;;1.83;1.73;;;;;;;;;;5073820;28;20199;-54
2022/07/04 01:10:51;;;;;;;4.87;1.70;;;;;;;;;;5073873;28;20201;-54
2022/07/04 01:13:20;;;;;;;1.60;1.50;;;;;;;;;;5073979;28;20554;-54
2022/07/04 01:15:46;;;;;;;3.37;1.73;;;;;;;;;;5073990;28;20565;-54
2022/07/04 01:18:12;;;;;;;3.27;1.90;;;;;;;;;;5073549;28;20199;-55
2022/07/04 01:20:40;;;;;;;2.33;1.80;;;;;;;;;;5073382;28;20236;-54
2022/07/04 01:23:06;;;;;;;1.67;1.57;;;;;;;;;;5073583;28;20239;-54
2022/07/04 01:25:33;;;;;;;2.13;1.70;;;;;;;;;;5073703;28;20195;-54
2022/07/04 01:27:59;;;;;;;2.10;1.90;;;;;;;;;;5073328;28;20199;-54
2022/07/04 01:30:25;;;;;;;4.70;1.83;;;;;;;;;;5073146;28;20195;-54
2022/07/04 01:32:51;;;;;;;2.10;1.90;;;;;;;;;;5073534;28;20740;-54
2022/07/04 01:35:17;;;;;;;2.20;1.80;;;;;;;;;;5073437;28;20381;-54
2022/07/04 01:37:44;;;;;;;1.93;1.80;;;;;;;;;;5073286;28;20203;-54
2022/07/04 01:40:12;;;;;;;2.10;1.90;;;;;;;;;;5073111;28;20216;-53
2022/07/04 01:42:38;;;;;;;1.90;1.70;;;;;;;;;;5072997;28;20723;-54
2022/07/04 01:45:04;;;;;;;2.13;2.00;;;;;;;;;;5073249;28;20299;-54
2022/07/04 01:47:30;;;;;;;2.10;1.93;;;;;;;;;;5073107;28;20200;-54
2022/07/04 01:49:56;;;;;;;2.20;2.10;;;;;;;;;;5073059;28;20249;-54
2022/07/04 01:52:22;;;;;;;2.20;2.00;;;;;;;;;;5073162;28;20208;-54
2022/07/04 01:54:49;;;;;;;2.67;2.37;;;;;;;;;;5073126;28;20249;-54
2022/07/04 01:57:15;;;;;;;4.07;2.87;;;;;;;;;;5072840;28;20669;-54
2022/07/04 02:02:26;;;;;;;3.03;2.70;;;;;;;;;;5072784;28;20198;-54
2022/07/04 02:04:52;;;;;;;2.57;2.37;;;;;;;;;;5073002;28;20218;-54
2022/07/04 02:07:18;;;;;;;3.27;2.20;;;;;;;;;;5072291;28;20666;-54
2022/07/04 02:09:44;;;;;;;2.70;2.23;;;;;;;;;;5072696;28;20207;-54
2022/07/04 02:15:01;;;;;;;3.20;2.60;;;;;;;;;;5080691;28;20637;-54
2022/07/04 02:17:27;;;;;;;3.43;2.40;;;;;;;;;;5072578;28;20199;-54
2022/07/04 02:19:53;;;;;;;3.97;2.73;;;;;;;;;;5072285;28;20243;-54
2022/07/04 02:22:19;;;;;;;2.30;2.10;;;;;;;;;;5072552;28;20199;-54
2022/07/04 02:24:45;;;;;;;2.40;2.20;;;;;;;;;;5072551;28;20260;-54
2022/07/04 02:27:12;;;;;;;2.73;2.50;;;;;;;;;;5072228;28;20197;-54
2022/07/04 02:29:38;;;;;;;2.70;2.50;;;;;;;;;;5072364;28;20222;-54
2022/07/04 02:32:05;;;;;;;2.70;2.50;;;;;;;;;;5072311;28;20187;-54
2022/07/04 02:34:31;;;;;;;3.07;2.87;;;;;;;;;;5072162;28;20196;-55
2022/07/04 02:36:57;;;;;;;4.03;2.87;;;;;;;;;;5072175;28;20203;-54
2022/07/04 02:39:24;;;;;;;2.90;2.70;;;;;;;;;;5072069;28;20206;-54
2022/07/04 02:41:50;;;;;;;3.60;2.70;;;;;;;;;;5072138;28;20235;-54
2022/07/04 02:44:17;;;;;;;2.80;2.60;;;;;;;;;;5072312;28;20233;-54
2022/07/04 02:46:43;;;;;;;5.03;3.00;;;;;;;;;;5072042;28;20195;-54
2022/07/04 02:49:09;;;;;;;3.40;3.10;;;;;;;;;;5071646;28;20215;-54
2022/07/04 02:51:35;;;;;;;3.00;2.80;;;;;;;;;;5071994;28;20565;-54
2022/07/04 02:54:01;;;;;;;3.40;3.10;;;;;;;;;;5071971;28;20195;-54
2022/07/04 02:56:27;;;;;;;3.37;2.70;;;;;;;;;;5071788;28;20199;-54
2022/07/04 02:58:53;;;;;;;3.40;3.10;;;;;;;;;;5071758;28;20274;-52
2022/07/04 03:01:20;;;;;;;3.40;3.10;;;;;;;;;;5071699;28;20314;-54
2022/07/04 03:03:47;;;;;;;4.73;3.10;;;;;;;;;;5071912;28;20688;-54
2022/07/04 03:06:13;;;;;;;3.37;2.90;;;;;;;;;;5071611;28;20677;-54
2022/07/04 03:08:39;;;;;;;4.50;2.70;;;;;;;;;;5071801;28;20195;-54
2022/07/04 03:11:06;;;;;;;3.40;3.10;;;;;;;;;;5071666;28;20679;-54
2022/07/04 03:13:32;;;;;;;3.83;3.30;;;;;;;;;;5071734;28;20670;-54
2022/07/04 03:15:58;;;;;;;3.40;3.10;;;;;;;;;;5071720;28;20204;-54
2022/07/04 03:18:25;;;;;;;4.00;3.60;;;;;;;;;;5071585;28;20191;-53
2022/07/04 03:20:51;;;;;;;3.50;3.20;;;;;;;;;;5071402;28;20223;-54
2022/07/04 03:23:17;;;;;;;3.30;3.00;;;;;;;;;;5071602;28;20252;-54
2022/07/04 03:25:43;;;;;;;3.47;3.10;;;;;;;;;;5071514;28;20286;-54
2022/07/04 03:28:09;;;;;;;3.97;3.57;;;;;;;;;;5071389;28;20230;-54
2022/07/04 03:30:36;;;;;;;6.00;4.20;;;;;;;;;;5071597;28;20200;-54
2022/07/04 03:33:02;;;;;;;3.90;3.60;;;;;;;;;;5071542;28;20957;-53
2022/07/04 03:35:29;;;;;;;5.70;4.30;;;;;;;;;;5071565;28;20252;-53
2022/07/04 03:37:56;;;;;;;5.00;4.30;;;;;;;;;;5071524;28;20204;-53
2022/07/04 03:40:22;;;;;;;5.17;4.60;;;;;;;;;;5071203;28;20226;-53
2022/07/04 03:42:48;;;;;;;5.13;4.67;;;;;;;;;;5071539;28;20207;-53
2022/07/04 03:45:14;;;;;;;4.60;4.20;;;;;;;;;;5071376;28;20203;-54
2022/07/04 03:47:40;;;;;;;5.33;4.83;;;;;;;;;;5071323;28;20191;-53
2022/07/04 03:50:07;;;;;;;4.77;4.30;;;;;;;;;;5071354;28;20599;-54
2022/07/04 03:52:34;;;;;;;5.00;4.57;;;;;;;;;;5071527;28;20191;-53
2022/07/04 03:55:00;;;;;;;4.60;4.17;;;;;;;;;;5071397;28;20264;-54
2022/07/04 03:57:26;;;;;;;4.80;4.33;;;;;;;;;;5071117;28;20199;-53
2022/07/04 03:59:52;;;;;;;5.13;4.60;;;;;;;;;;5071082;28;20234;-54
2022/07/04 04:02:18;;;;;;;4.97;4.57;;;;;;;;;;5072937;28;20199;-54
2022/07/04 04:07:29;;;;;;;5.37;4.87;;;;;;;;;;5075221;28;20194;-54
2022/07/04 04:09:56;;;;;;;5.20;4.80;;;;;;;;;;5074913;28;20299;-53
2022/07/04 04:12:22;;;;;;;5.77;5.27;;;;;;;;;;5074721;28;20257;-53
2022/07/04 04:14:48;;;;;;;5.67;4.90;;;;;;;;;;5074980;28;20197;-53
2022/07/04 04:17:14;;;;;;;5.60;5.20;;;;;;;;;;5074725;28;20241;-53
2022/07/04 04:19:40;;;;;;;9.20;5.67;;;;;;;;;;5074558;28;20235;-53
2022/07/04 04:22:06;;;;;;;6.57;6.03;;;;;;;;;;5074345;28;20230;-54
2022/07/04 04:24:32;;;;;;;5.90;5.27;;;;;;;;;;5074888;28;20203;-54
2022/07/04 04:26:59;;;;;;;7.63;6.33;;;;;;;;;;5074640;28;20290;-53
2022/07/04 04:29:25;;;;;;;6.50;5.80;;;;;;;;;;5074462;28;20204;-54
2022/07/04 04:31:51;;;;;;;6.40;5.90;;;;;;;;;;5074666;28;20539;-53
2022/07/04 04:34:17;;;;;;;7.33;6.63;;;;;;;;;;5074607;28;20287;-53
2022/07/04 04:36:43;;;;;;;7.63;6.90;;;;;;;;;;5074576;28;20210;-53
2022/07/04 04:39:09;;;;;;;7.97;7.17;;;;;;;;;;5074371;28;20195;-54
2022/07/04 04:41:35;;;;;;;9.03;7.70;;;;;;;;;;5074359;28;20310;-54
2022/07/04 04:44:04;;;;;;;8.07;7.37;;;;;;;;;;5074416;28;20606;-53
2022/07/04 04:46:30;;;;;;;8.00;7.30;;;;;;;;;;5073945;28;20196;-54
2022/07/04 04:48:56;;;;;;;7.93;7.20;;;;;;;;;;5074163;28;20299;-54
2022/07/04 04:51:22;;;;;;;7.60;6.80;;;;;;;;;;5074173;28;20206;-54
2022/07/04 04:53:48;;;;;;;9.37;8.53;;;;;;;;;;5074261;28;20203;-54
2022/07/04 04:56:14;;;;;;;9.00;7.87;;;;;;;;;;5074051;28;20306;-54
2022/07/04 04:58:40;;;;;;;6.90;6.23;;;;;;;;;;5073992;28;20388;-54
2022/07/04 05:01:07;;;;;;;7.50;6.77;;;;;;;;;;5073776;28;20748;-54
2022/07/04 05:03:33;;;;;;;8.60;7.90;;;;;;;;;;5073951;28;20210;-54
2022/07/04 05:06:00;;;;;;;9.17;8.37;;;;;;;;;;5074014;28;20191;-55
2022/07/04 05:08:26;;;;;;;8.97;8.03;;;;;;;;;;5073789;28;20276;-54
2022/07/04 05:10:52;;;;;;;8.87;8.13;;;;;;;;;;5073802;28;20203;-53
2022/07/04 05:13:18;;;;;;;8.97;8.10;;;;;;;;;;5073285;28;20200;-53
2022/07/04 05:15:44;;;;;;;8.60;7.80;;;;;;;;;;5072906;28;20691;-53
2022/07/04 05:18:15;;;;;;;8.87;7.97;;;;;;;;;;5073337;28;20199;-54
2022/07/04 05:20:41;;;;;;;8.83;7.70;;;;;;;;;;5072809;28;20297;-54
2022/07/04 05:23:07;;;;;;;8.63;7.67;;;;;;;;;;5073241;28;20192;-53
2022/07/04 05:25:33;;;;;;;8.10;7.30;;;;;;;;;;5073520;28;20252;-53
2022/07/04 05:27:59;;;;;;;8.43;7.63;;;;;;;;;;5073525;28;20223;-54
2022/07/04 05:30:25;;;;;;;8.27;7.50;;;;;;;;;;5072065;28;20223;-53
2022/07/04 05:32:52;;;;;;;8.87;7.33;;;;;;;;;;5073310;28;20196;-54
2022/07/04 05:35:19;;;;;;;9.10;7.33;;;;;;;;;;5073119;28;20291;-54
2022/07/04 05:37:45;;;;;;;8.23;6.83;;;;;;;;;;5073252;28;20195;-54
2022/07/04 05:40:11;;;;;;;7.77;7.00;;;;;;;;;;5072897;28;20651;-54
2022/07/04 05:42:37;;;;;;;7.40;6.70;;;;;;;;;;5072978;28;20629;-54
2022/07/04 05:45:04;;;;;;;9.20;7.73;;;;;;;;;;5072887;28;20227;-54
2022/07/04 05:47:30;;;;;;;8.00;7.20;;;;;;;;;;5072726;28;20332;-53
2022/07/04 05:49:56;;;;;;;9.00;6.43;;;;;;;;;;5072978;28;20647;-53
2022/07/04 05:52:24;;;;;;;7.53;6.73;;;;;;;;;;5072818;28;20207;-54
2022/07/04 05:54:50;;;;;;;6.87;6.23;;;;;;;;;;5073046;28;20234;-53
2022/07/04 05:57:16;;;;;;;7.60;6.80;;;;;;;;;;5072810;28;20200;-54
2022/07/04 05:59:42;;;;;;;6.37;5.80;;;;;;;;;;5072843;28;20393;-54
2022/07/04 06:02:08;;;;;;;6.47;5.83;;;;;;;;;;5072643;28;20277;-55
2022/07/04 06:04:34;;;;;;;6.03;5.53;;;;;;;;;;5072810;28;20654;-54
2022/07/04 06:07:00;;;;;;;7.20;5.63;;;;;;;;;;5072795;28;20196;-54
2022/07/04 06:09:27;;;;;;;8.87;7.30;;;;;;;;;;5072608;28;20248;-54
2022/07/04 06:11:53;;;;;;;6.33;5.73;;;;;;;;;;5072587;28;20195;-54
2022/07/04 06:14:19;;;;;;;6.03;5.30;;;;;;;;;;5072458;28;20553;-54
2022/07/04 06:16:46;;;;;;;6.67;4.20;;;;;;;;;;5072386;28;20679;-54
2022/07/04 06:19:12;;;;;;;9.50;4.30;;;;;;;;;;5071739;28;20247;-53
2022/07/04 06:21:38;;;;;;;6.13;3.33;;;;;;;;;;5072038;28;20310;-54
2022/07/04 06:24:04;;;;;;;5.80;3.40;;;;;;;;;;5071963;28;20199;-50
2022/07/04 06:26:32;;;;;;;4.47;3.33;;;;;;;;;;5072140;28;20208;-53
2022/07/04 06:28:58;;;;;;;6.43;3.63;;;;;;;;;;5072295;28;20259;-53
2022/07/04 06:31:24;;;;;;;3.90;3.20;;;;;;;;;;5071979;28;20607;-53
2022/07/04 06:36:35;;;;;;;3.60;3.30;;;;;;;;;;5072283;28;20204;-53
2022/07/04 06:39:00;;;;;;;4.97;3.27;;;;;;;;;;5072301;28;20198;-53
2022/07/04 06:41:27;;;;;;;4.03;3.13;;;;;;;;;;5070063;28;20635;-53
2022/07/04 06:43:54;;;;;;;3.53;2.53;;;;;;;;;;5071862;28;20207;-53
2022/07/04 06:46:21;;;;;;;6.27;2.63;;;;;;;;;;5071824;28;20208;-54
2022/07/04 06:48:46;;;;;;;3.80;2.63;;;;;;;;;;5071963;28;20665;-53
2022/07/04 06:51:13;;;;;;;3.77;2.57;;;;;;;;;;5071762;28;20191;-53
2022/07/04 06:53:40;;;;;;;4.27;2.90;;;;;;;;;;5071703;28;20716;-54
2022/07/04 06:56:06;;;;;;;4.57;2.80;;;;;;;;;;5071640;28;20603;-53
2022/07/04 06:58:32;;;;;;;4.10;2.90;;;;;;;;;;5071774;28;20275;-53
2022/07/04 07:00:59;;;;;;;3.27;2.37;;;;;;;;;;5071810;28;20231;-53
2022/07/04 07:03:27;;;;;;;4.60;2.67;;;;;;;;;;5071507;28;20215;-52
2022/07/04 07:05:53;;;;;;;2.57;1.90;;;;;;;;;;5071621;28;20210;-53
2022/07/04 07:08:19;;;;;;;3.10;2.00;;;;;;;;;;5071640;28;20257;-53
2022/07/04 07:10:45;;;;;;;2.70;1.90;;;;;;;;;;5071507;28;20593;-54
2022/07/04 07:13:11;;;;;;;4.00;2.00;;;;;;;;;;5071382;28;20202;-54
2022/07/04 07:15:37;;;;;;;3.53;1.80;;;;;;;;;;5071400;28;20661;-53
2022/07/04 07:18:05;;;;;;;2.57;1.80;;;;;;;;;;5071396;28;20219;-54
2022/07/04 07:20:31;;;;;;;3.43;1.80;;;;;;;;;;5071179;28;20783;-54
2022/07/04 07:22:57;;;;;;;5.40;2.00;;;;;;;;;;5071432;28;20227;-52
2022/07/04 07:25:23;;;;;;;2.27;1.80;;;;;;;;;;5071255;28;20260;-53
2022/07/04 07:27:49;;;;;;;3.33;2.10;;;;;;;;;;5071402;28;20677;-52
2022/07/04 07:30:15;;;;;;;3.30;1.90;;;;;;;;;;5071384;28;20207;-53
2022/07/04 07:32:41;;;;;;;5.23;1.60;;;;;;;;;;5071285;28;20262;-51
2022/07/04 07:35:09;;;;;;;3.77;1.50;;;;;;;;;;5071245;28;20203;-52
2022/07/04 07:37:35;;;;;;;1.97;1.50;;;;;;;;;;5075311;28;20256;-54
2022/07/04 07:40:02;;;;;;;1.90;1.40;;;;;;;;;;5075438;28;20605;-53
2022/07/04 07:42:28;;;;;;;2.17;1.57;;;;;;;;;;5075118;28;20238;-52
2022/07/04 07:44:54;;;;;;;9.10;1.57;;;;;;;;;;5075156;28;20828;-56
2022/07/04 07:47:20;;;;;;;2.93;1.50;;;;;;;;;;5075063;28;20291;-51
2022/07/04 07:49:47;;;;;;;2.90;1.57;;;;;;;;;;5075167;28;20258;-51
2022/07/04 07:52:15;;;;;;;3.70;1.57;;;;;;;;;;5075310;28;20200;-53
2022/07/04 07:54:41;;;;;;;1.90;1.40;;;;;;;;;;5075151;28;20211;-52
2022/07/04 07:57:07;;;;;;;4.70;1.77;;;;;;;;;;5075088;28;20203;-52
2022/07/04 07:59:33;;;;;;;1.43;1.07;;;;;;;;;;5075439;28;20222;-52
2022/07/04 08:01:59;;;;;;;3.87;1.30;;;;;;;;;;5075047;28;20306;-52
2022/07/04 08:04:34;;;;;;;2.00;1.20;;;;;;;;;;5074610;28;20215;-52
2022/07/04 08:07:00;;;;;;;3.63;1.70;;;;;;;;;;5075319;28;20240;-53
2022/07/04 08:09:28;;;;;;;1.73;1.30;;;;;;;;;;5075120;28;20273;-51
2022/07/04 08:11:54;;;;;;;2.57;1.40;;;;;;;;;;5075054;28;20910;-54
2022/07/04 08:14:20;;;;;;;2.10;1.23;;;;;;;;;;5075063;28;20245;-52
2022/07/04 08:16:46;;;;;;;5.77;1.50;;;;;;;;;;5074989;28;20562;-52
2022/07/04 08:19:12;;;;;;;1.40;1.27;;;;;;;;;;5074861;28;20265;-53
2022/07/04 08:21:37;;;;;;;2.13;1.10;;;;;;;;;;5074956;28;20711;-51
2022/07/04 08:24:04;;;;;;;3.17;1.20;;;;;;;;;;5075105;28;20203;-52
2022/07/04 08:26:31;;;;;;;3.53;1.30;;;;;;;;;;5074688;28;20279;-53
2022/07/04 08:29:06;;;;;;;2.60;0.93;;;;;;;;;;5074883;28;20219;-53
2022/07/04 08:31:32;;;;;;;1.93;0.90;;;;;;;;;;5074877;28;20188;-54
2022/07/04 08:33:58;;;;;;;1.33;0.93;;;;;;;;;;5074881;28;20271;-51
2022/07/04 08:36:24;;;;;;;1.47;0.97;;;;;;;;;;5074647;28;20662;-51
2022/07/04 08:38:50;;;;;;;1.90;0.93;;;;;;;;;;5074760;28;20279;-52
2022/07/04 08:41:17;;;;;;;2.63;1.03;;;;;;;;;;5074466;28;20283;-51
2022/07/04 08:43:45;;;;;;;2.80;1.10;;;;;;;;;;5074387;28;20213;-52
2022/07/04 08:46:11;;;;;;;2.87;1.20;;;;;;;;;;5074421;28;20261;-52
2022/07/04 08:48:38;;;;;;;1.40;0.80;;;;;;;;;;5073647;28;20228;-52
2022/07/04 08:51:09;;;;;;;1.53;0.90;;;;;;;;;;5074519;28;20197;-52
2022/07/04 08:53:36;;;;;;;2.50;1.00;;;;;;;;;;5074360;28;20597;-52
2022/07/04 08:58:49;;;;;;;0.93;0.87;;;;;;;;;;5074424;28;20209;-52
2022/07/04 09:01:15;;;;;;;3.87;1.00;;;;;;;;;;5074052;28;20294;-52
2022/07/04 09:03:42;;;;;;;1.60;0.93;;;;;;;;;;5074026;28;20849;-52
2022/07/04 09:06:08;;;;;;;0.73;0.60;;;;;;;;;;5074077;28;20201;-51
2022/07/04 09:08:34;;;;;;;1.33;0.87;;;;;;;;;;5073662;28;20218;-52
2022/07/04 09:11:02;;;;;;;1.43;0.70;;;;;;;;;;5073751;28;20194;-52
2022/07/04 09:13:28;;;;;;;1.80;0.80;;;;;;;;;;5073506;28;20206;-50
2022/07/04 09:15:55;;;;;;;2.30;1.03;;;;;;;;;;5073705;28;20483;-50
2022/07/04 09:18:25;;;;;;;2.43;0.97;;;;;;;;;;5073565;28;20214;-50
2022/07/04 09:20:51;;;;;;;2.37;1.03;;;;;;;;;;5073443;28;20724;-51
2022/07/04 09:23:18;;;;;;;1.67;0.80;;;;;;;;;;5073628;28;20212;-50
2022/07/04 09:25:45;;;;;;;0.97;0.60;;;;;;;;;;5073524;28;20198;-49
2022/07/04 09:28:11;;;;;;;1.40;0.97;;;;;;;;;;5073385;28;20650;-50
2022/07/04 09:30:48;;;;;;;1.13;0.70;;;;;;;;;;5073399;28;20195;-50
2022/07/04 09:33:17;;;;;;;1.13;0.60;;;;;;;;;;5073284;28;20545;-50
2022/07/04 09:35:44;;;;;;;1.93;0.90;;;;;;;;;;5073268;28;20706;-50
2022/07/04 09:38:11;;;;;;;0.90;0.70;;;;;;;;;;5073147;28;20607;-50
2022/07/04 09:43:22;;;;;;;1.00;0.73;;;;;;;;;;5073238;28;20194;-51
2022/07/04 09:45:55;;;;;;;1.93;0.80;;;;;;;;;;5073240;28;20196;-50
2022/07/04 09:48:23;;;;;;;1.70;1.00;;;;;;;;;;5073023;28;20204;-49
2022/07/04 09:50:49;;;;;;;1.20;0.70;;;;;;;;;;5073322;28;20206;-50
2022/07/04 09:53:15;;;;;;;1.60;0.80;;;;;;;;;;5073019;28;20197;-51
2022/07/04 09:55:41;;;;;;;2.40;0.80;;;;;;;;;;5072967;28;20241;-50
2022/07/04 09:58:08;;;;;;;0.67;0.67;;;;;;;;;;5072892;28;20204;-51
2022/07/04 10:00:38;;;;;;;1.67;0.77;;;;;;;;;;5071766;28;20237;-51
2022/07/04 10:03:17;;;;;;;1.33;0.90;;;;;;;;;;5072868;28;20254;-51
2022/07/04 10:05:45;;;;;;;1.07;0.90;;;;;;;;;;5072638;28;20203;-51
2022/07/04 10:08:11;;;;;;;1.20;0.70;;;;;;;;;;5072634;28;20204;-51
2022/07/04 10:10:39;;;;;;;2.93;1.13;;;;;;;;;;5072394;28;20193;-50
2022/07/04 10:13:06;;;;;;;1.03;0.70;;;;;;;;;;5072411;28;20200;-49
2022/07/04 10:15:33;;;;;;;1.60;0.70;;;;;;;;;;5072472;28;20204;-49
2022/07/04 10:18:00;;;;;;;1.70;0.60;;;;;;;;;;5081870;28;20215;-50
2022/07/04 10:20:26;;;;;;;1.37;0.80;;;;;;;;;;5092176;28;20712;-51
2022/07/04 10:22:53;;;;;;;1.10;0.63;;;;;;;;;;5092407;28;20215;-53
2022/07/04 10:25:19;;;;;;;1.37;0.83;;;;;;;;;;5092373;28;20287;-52
2022/07/04 10:27:46;;;;;;;1.17;0.90;;;;;;;;;;5090977;28;20280;-53
2022/07/04 10:30:14;;;;;;;3.23;0.90;;;;;;;;;;5089130;28;20211;-51
2022/07/04 10:32:43;;;;;;;2.40;0.90;;;;;;;;;;5092358;28;20213;-52
2022/07/04 10:35:09;;;;;;;1.70;0.90;;;;;;;;;;5092527;28;20232;-53
2022/07/04 10:37:53;;;;;;;3.17;1.10;;;;;;;;;;5092505;28;20641;-51
2022/07/04 10:40:34;;;;;;;2.50;1.30;;;;;;;;;;5092403;28;20181;-52
2022/07/04 10:43:02;;;;;;;0.90;0.80;;;;;;;;;;5092176;28;20228;-51
2022/07/04 10:45:38;;;;;;;2.23;1.00;;;;;;;;;;5092259;28;20206;-52
2022/07/04 10:48:08;;;;;;;2.20;1.10;;;;;;;;;;5092306;28;20669;-52
2022/07/04 10:50:34;;;;;;;2.47;1.13;;;;;;;;;;5092262;28;20305;-53
2022/07/04 10:53:09;;;;;;;1.27;0.70;;;;;;;;;;5092440;28;20276;-53
2022/07/04 10:55:35;;;;;;;1.63;0.90;;;;;;;;;;5091940;28;20675;-51
2022/07/04 10:58:02;;;;;;;2.37;0.97;;;;;;;;;;5092400;28;20691;-50
2022/07/04 11:00:28;;;;;;;1.53;0.90;;;;;;;;;;5091868;28;20222;-52
2022/07/04 11:03:15;;;;;;;0.83;0.70;;;;;;;;;;5091919;28;20204;-52
2022/07/04 11:05:42;;;;;;;1.63;0.93;;;;;;;;;;5092004;28;20193;-52
2022/07/04 11:08:08;;;;;;;0.87;0.80;;;;;;;;;;5091837;28;20202;-52
2022/07/04 11:10:38;;;;;;;2.23;1.00;;;;;;;;;;5091338;28;20208;-54
2022/07/04 11:13:07;;;;;;;3.23;1.07;;;;;;;;;;5091953;28;20280;-50
2022/07/04 11:16:07;;;;;;;3.27;2.63;;;;;;;;;;5091799;28;20212;-50
2022/07/04 11:18:40;;;;;;;1.97;1.23;;;;;;;;;;5029396;28;20294;-52
2022/07/04 11:21:16;;;;;;;2.17;1.20;;;;;;;;;;5029248;28;20775;-53
2022/07/04 11:23:49;;;;;;;2.37;0.90;;;;;;;;;;5063763;28;20282;-52
2022/07/04 11:26:15;;;;;;;2.83;0.97;;;;;;;;;;5091464;28;20200;-51
2022/07/04 11:28:41;;;;;;;2.67;0.83;;;;;;;;;;5089523;28;20226;-53
2022/07/04 11:31:07;;;;;;;1.73;1.03;;;;;;;;;;5090156;28;20269;-51
2022/07/04 11:33:36;;;;;;;4.87;1.00;;;;;;;;;;5091703;28;20313;-51
2022/07/04 11:36:03;;;;;;;2.97;1.00;;;;;;;;;;5091895;28;20252;-51
2022/07/04 11:38:44;;;;;;;2.90;0.80;;;;;;;;;;5091357;28;20661;-51
2022/07/04 11:46:39;;;;;;;2.27;1.03;;;;;;;;;;5091728;28;20210;-52
2022/07/04 11:49:09;;;;;;;2.27;1.13;;;;;;;;;;5091677;28;20206;-50
2022/07/04 11:51:35;;;;;;;6.43;1.10;;;;;;;;;;5091594;28;20199;-52
2022/07/04 11:54:05;;;;;;;1.83;1.07;;;;;;;;;;5089991;28;20251;-50
2022/07/04 11:56:31;;;;;;;1.67;0.83;;;;;;;;;;5091798;28;20281;-50
2022/07/04 11:59:09;;;;;;;1.47;0.77;;;;;;;;;;5091799;28;20304;-49
2022/07/04 12:01:34;;;;;;;2.63;1.10;;;;;;;;;;5091650;28;20236;-51
2022/07/04 12:04:11;;;;;;;2.27;0.73;;;;;;;;;;5091924;28;20206;-50
2022/07/04 12:06:37;;;;;;;2.27;0.80;;;;;;;;;;5091646;28;20596;-51
2022/07/04 12:09:03;;;;;;;1.70;1.00;;;;;;;;;;5091798;28;20205;-50
2022/07/04 12:11:44;;;;;;;2.10;1.03;;;;;;;;;;5091480;28;20200;-50
2022/07/04 12:14:14;;;;;;;2.20;0.73;;;;;;;;;;5091486;28;20197;-50
2022/07/04 12:16:40;;;;;;;1.07;0.90;;;;;;;;;;5091722;28;20248;-50
2022/07/04 12:19:09;;;;;;;4.93;0.83;;;;;;;;;;5091518;28;20233;-52
2022/07/04 12:21:35;;;;;;;1.17;0.60;;;;;;;;;;5091208;28;20317;-49
2022/07/04 12:24:03;;;;;;;2.20;0.97;;;;;;;;;;5094476;28;20646;-50
2022/07/04 12:26:30;;;;;;;1.23;0.93;;;;;;;;;;5095286;28;20204;-50
2022/07/04 12:28:56;;;;;;;0.77;0.73;;;;;;;;;;5095411;28;20569;-50
2022/07/04 12:31:37;;;;;;;2.03;1.17;;;;;;;;;;5095180;28;20197;-50
2022/07/04 12:34:03;;;;;;;0.83;0.70;;;;;;;;;;5095436;28;20233;-51
2022/07/04 12:36:29;;;;;;;1.57;0.80;;;;;;;;;;5094989;28;20291;-50
2022/07/04 12:38:56;;;;;;;3.27;1.07;;;;;;;;;;5095139;28;20257;-50
2022/07/04 12:41:29;;;;;;;2.87;0.87;;;;;;;;;;5094743;28;20250;-51
2022/07/04 12:43:57;;;;;;;3.83;1.00;;;;;;;;;;5095171;28;20204;-51
2022/07/04 12:46:27;;;;;;;1.90;0.83;;;;;;;;;;5094874;28;20198;-51
2022/07/04 12:48:55;;;;;;;1.17;0.97;;;;;;;;;;5094776;28;20203;-51
2022/07/04 12:51:22;;;;;;;2.87;1.17;;;;;;;;;;5094715;28;20224;-50
2022/07/04 12:53:49;;;;;;;2.43;0.97;;;;;;;;;;5094888;28;20210;-50
2022/07/04 12:56:28;;;;;;;2.07;1.20;;;;;;;;;;5094782;28;20200;-51
2022/07/04 12:58:54;;;;;;;1.77;0.90;;;;;;;;;;5094630;28;20796;-50
2022/07/04 13:01:20;;;;;;;3.03;1.07;;;;;;;;;;5094634;28;20222;-49
2022/07/04 13:03:46;;;;;;;1.83;1.00;;;;;;;;;;5094896;28;20198;-48
2022/07/04 13:06:13;;;;;;;1.10;0.90;;;;;;;;;;5094724;28;20727;-50
2022/07/04 13:08:39;;;;;;;1.97;1.10;;;;;;;;;;5094512;28;20546;-51
2022/07/04 13:13:50;;;;;;;0.80;0.63;;;;;;;;;;5094553;28;20198;-50
2022/07/04 13:16:16;;;;;;;2.57;0.97;;;;;;;;;;5094505;28;20191;-50
2022/07/04 13:18:42;;;;;;;1.20;0.90;;;;;;;;;;5094273;28;20704;-51
2022/07/04 13:21:08;;;;;;;1.40;1.00;;;;;;;;;;5092413;28;20228;-50
2022/07/04 13:23:37;;;;;;;1.63;0.97;;;;;;;;;;5093913;28;20239;-51
2022/07/04 13:26:03;;;;;;;2.07;1.00;;;;;;;;;;5093984;28;20203;-50
2022/07/04 13:28:29;;;;;;;1.90;1.00;;;;;;;;;;5093732;28;20197;-50
2022/07/04 13:30:55;;;;;;;2.33;0.97;;;;;;;;;;5093923;28;20198;-51
2022/07/04 13:33:21;;;;;;;1.27;0.77;;;;;;;;;;5093444;28;20238;-49
2022/07/04 13:35:47;;;;;;;1.70;1.00;;;;;;;;;;5093926;28;20230;-51
2022/07/04 13:38:14;;;;;;;2.20;0.90;;;;;;;;;;5093690;28;20226;-51
2022/07/04 13:40:43;;;;;;;1.63;1.00;;;;;;;;;;5093573;28;20598;-51
2022/07/04 13:43:10;;;;;;;7.80;1.07;;;;;;;;;;5093507;28;20247;-50
2022/07/04 13:45:36;;;;;;;4.17;1.07;;;;;;;;;;5093366;28;20591;-50
2022/07/04 13:48:02;;;;;;;2.73;1.00;;;;;;;;;;5093577;28;20613;-50
2022/07/04 13:50:28;;;;;;;2.00;1.07;;;;;;;;;;5093282;28;20210;-51
2022/07/04 13:52:54;;;;;;;3.30;1.10;;;;;;;;;;5093294;28;20561;-56
2022/07/04 13:55:20;;;;;;;8.07;1.30;;;;;;;;;;5093187;28;20202;-51
2022/07/04 13:57:48;;;;;;;2.77;1.23;;;;;;;;;;5093222;28;20253;-50
2022/07/04 14:00:14;;;;;;;3.60;1.10;;;;;;;;;;5093357;28;20231;-50
2022/07/04 14:02:40;;;;;;;5.10;1.00;;;;;;;;;;5093377;28;20758;-52
2022/07/04 14:05:06;;;;;;;1.33;0.83;;;;;;;;;;5093443;28;20202;-52
2022/07/04 14:07:33;;;;;;;2.60;0.90;;;;;;;;;;5093160;28;20279;-52
2022/07/04 14:09:59;;;;;;;1.13;0.93;;;;;;;;;;5093046;28;20281;-52
2022/07/04 14:12:25;;;;;;;2.93;1.27;;;;;;;;;;5093031;28;20300;-53
2022/07/04 14:14:52;;;;;;;1.80;1.00;;;;;;;;;;5093312;28;20196;-52
2022/07/04 14:17:18;;;;;;;3.27;1.07;;;;;;;;;;5093301;28;20198;-52
2022/07/04 14:19:44;;;;;;;1.60;1.00;;;;;;;;;;5093052;28;20599;-51
2022/07/04 14:22:10;;;;;;;4.07;1.30;;;;;;;;;;5093097;28;20271;-52
2022/07/04 14:24:36;;;;;;;3.13;1.07;;;;;;;;;;5091070;28;20561;-52
2022/07/04 14:27:02;;;;;;;2.53;1.10;;;;;;;;;;5092892;28;20214;-52
2022/07/04 14:29:28;;;;;;;3.07;1.50;;;;;;;;;;5092632;28;20215;-52
2022/07/04 14:31:56;;;;;;;2.40;0.90;;;;;;;;;;5092563;28;20195;-52
2022/07/04 14:34:22;;;;;;;1.13;0.90;;;;;;;;;;5092347;28;20238;-50
2022/07/04 14:36:48;;;;;;;2.73;1.27;;;;;;;;;;5092596;28;20605;-51
2022/07/04 14:39:14;;;;;;;1.23;0.90;;;;;;;;;;5092555;28;20206;-51
2022/07/04 14:41:40;;;;;;;1.80;0.83;;;;;;;;;;5092295;28;20548;-50
2022/07/04 14:44:06;;;;;;;3.53;1.30;;;;;;;;;;5092674;28;20724;-51
2022/07/04 14:46:32;;;;;;;4.33;1.20;;;;;;;;;;5091830;28;20194;-51
2022/07/04 14:48:59;;;;;;;1.93;0.83;;;;;;;;;;5092387;28;20610;-52
2022/07/04 14:51:25;;;;;;;4.30;1.20;;;;;;;;;;5092256;28;20542;-52
2022/07/04 14:53:51;;;;;;;1.50;1.17;;;;;;;;;;5092304;28;20195;-52
2022/07/04 14:56:17;;;;;;;1.80;1.10;;;;;;;;;;5092259;28;20275;-52
2022/07/04 14:58:43;;;;;;;1.90;1.10;;;;;;;;;;5092123;28;20198;-52
2022/07/04 15:01:09;;;;;;;3.73;1.30;;;;;;;;;;5091983;28;20230;-52
2022/07/04 15:03:35;;;;;;;2.07;1.30;;;;;;;;;;5092103;28;20195;-52
2022/07/04 15:06:03;;;;;;;3.40;1.40;;;;;;;;;;5092261;28;20639;-51